createdAt,value
2022-10-26T00:00:45.766Z,18.42
2022-10-26T00:03:12.407Z,15.10
2022-10-26T00:05:38.990Z,17.15
2022-10-26T00:08:05.841Z,17.38
2022-10-26T00:10:35.255Z,16.75
2022-10-26T00:13:01.891Z,17.80
2022-10-26T00:15:28.804Z,15.67
2022-10-26T00:17:55.367Z,16.25
2022-10-26T00:20:21.790Z,17.95
2022-10-26T00:22:48.216Z,18.05
2022-10-26T00:25:14.860Z,16.73
2022-10-26T00:27:41.221Z,15.47
2022-10-26T00:30:08.256Z,16.00
2022-10-26T00:32:34.912Z,15.93
2022-10-26T00:35:10.568Z,14.45
2022-10-26T00:37:48.232Z,15.98
2022-10-26T00:40:15.009Z,15.03
2022-10-26T00:42:41.380Z,15.23
2022-10-26T00:45:20.990Z,13.88
2022-10-26T00:47:50.956Z,14.93
2022-10-26T00:50:34.704Z,15.32
2022-10-26T00:53:04.569Z,13.57
2022-10-26T00:55:36.117Z,13.27
2022-10-26T00:58:05.270Z,14.18
2022-10-26T01:00:31.858Z,15.63
2022-10-26T01:03:01.679Z,16.25
2022-10-26T01:05:29.021Z,14.63
2022-10-26T01:07:55.571Z,13.02
2022-10-26T01:10:22.735Z,13.32
2022-10-26T01:12:49.298Z,14.85
2022-10-26T01:15:16.180Z,12.32
2022-10-26T01:17:54.819Z,13.60
2022-10-26T01:20:33.500Z,14.77
2022-10-26T01:23:11.984Z,13.90
2022-10-26T01:25:51.816Z,13.80
2022-10-26T01:28:37.606Z,14.88
2022-10-26T01:31:08.845Z,18.33
2022-10-26T01:33:42.751Z,12.85
2022-10-26T01:36:40.413Z,16.83
2022-10-26T01:39:40.218Z,16.25
2022-10-26T01:42:09.805Z,14.32
2022-10-26T01:44:43.132Z,13.43
2022-10-26T01:47:15.406Z,11.43
2022-10-26T01:49:47.085Z,15.27
2022-10-26T01:52:13.575Z,14.25
2022-10-26T01:54:39.991Z,13.55
2022-10-26T01:57:09.899Z,13.83
2022-10-26T01:59:42.416Z,16.58
2022-10-26T02:02:20.961Z,13.68
2022-10-26T02:04:50.265Z,13.18
2022-10-26T02:07:27.639Z,14.65
2022-10-26T02:10:05.018Z,16.20
2022-10-26T02:12:59.360Z,12.95
2022-10-26T02:15:53.515Z,15.05
2022-10-26T02:18:51.012Z,15.35
2022-10-26T02:21:24.507Z,14.25
2022-10-26T02:23:52.554Z,14.00
2022-10-26T02:26:24.168Z,14.40
2022-10-26T02:28:53.847Z,13.90
2022-10-26T02:31:21.011Z,16.45
2022-10-26T02:33:51.637Z,13.20
2022-10-26T02:36:24.621Z,12.90
2022-10-26T02:38:53.068Z,14.95
2022-10-26T02:41:21.698Z,12.50
2022-10-26T02:43:55.492Z,16.35
2022-10-26T02:46:25.283Z,13.50
2022-10-26T02:48:51.750Z,13.23
2022-10-26T02:51:25.069Z,13.30
2022-10-26T02:53:59.137Z,14.95
2022-10-26T02:56:36.520Z,12.48
2022-10-26T02:59:07.914Z,13.18
2022-10-26T03:01:35.522Z,10.80
2022-10-26T03:04:02.281Z,13.20
2022-10-26T03:06:28.672Z,15.27
2022-10-26T03:08:55.151Z,14.50
2022-10-26T03:11:21.591Z,15.07
2022-10-26T03:13:48.018Z,12.60
2022-10-26T03:16:14.455Z,12.52
2022-10-26T03:18:40.825Z,16.15
2022-10-26T03:21:07.249Z,14.23
2022-10-26T03:23:33.616Z,13.85
2022-10-26T03:26:00.234Z,14.00
2022-10-26T03:28:27.212Z,13.52
2022-10-26T03:30:53.644Z,13.65
2022-10-26T03:33:21.548Z,13.93
2022-10-26T03:35:59.757Z,14.52
2022-10-26T03:38:26.256Z,13.60
2022-10-26T03:40:52.770Z,11.88
2022-10-26T03:43:19.296Z,13.00
2022-10-26T03:45:45.747Z,10.32
2022-10-26T03:48:12.572Z,15.20
2022-10-26T03:50:39.086Z,14.93
2022-10-26T03:53:06.130Z,13.18
2022-10-26T03:55:32.673Z,13.43
2022-10-26T03:57:59.071Z,11.38
2022-10-26T04:00:25.592Z,12.27
2022-10-26T04:02:59.833Z,12.80
2022-10-26T04:05:28.351Z,12.50
2022-10-26T04:08:00.398Z,13.15
2022-10-26T04:10:27.946Z,11.45
2022-10-26T04:12:55.237Z,12.57
2022-10-26T04:15:22.315Z,13.13
2022-10-26T04:17:49.038Z,12.23
2022-10-26T04:20:15.776Z,14.65
2022-10-26T04:22:42.136Z,10.60
2022-10-26T04:25:08.850Z,13.23
2022-10-26T04:27:35.242Z,13.33
2022-10-26T04:30:01.656Z,12.10
2022-10-26T04:32:28.035Z,11.85
2022-10-26T04:34:54.391Z,16.10
2022-10-26T04:37:20.761Z,14.63
2022-10-26T04:39:47.149Z,13.73
2022-10-26T04:42:13.565Z,12.15
2022-10-26T04:44:39.949Z,16.02
2022-10-26T04:47:06.321Z,12.90
2022-10-26T04:49:32.701Z,11.50
2022-10-26T04:51:59.093Z,16.00
2022-10-26T04:54:25.472Z,12.30
2022-10-26T04:56:51.891Z,13.55
2022-10-26T04:59:18.309Z,13.63
2022-10-26T05:01:44.803Z,11.75
2022-10-26T05:04:11.411Z,12.17
2022-10-26T05:06:37.797Z,12.35
2022-10-26T05:09:04.543Z,10.80
2022-10-26T05:11:30.987Z,12.75
2022-10-26T05:13:57.342Z,12.30
2022-10-26T05:16:23.768Z,15.13
2022-10-26T05:18:50.237Z,10.98
2022-10-26T05:21:17.510Z,11.32
2022-10-26T05:23:43.897Z,10.23
2022-10-26T05:26:10.269Z,10.80
2022-10-26T05:28:36.676Z,15.13
2022-10-26T05:31:03.083Z,12.20
2022-10-26T05:33:29.465Z,10.32
2022-10-26T05:35:55.898Z,9.85
2022-10-26T05:38:22.388Z,11.07
2022-10-26T05:40:53.270Z,12.13
2022-10-26T05:43:23.700Z,13.95
2022-10-26T05:45:51.162Z,11.00
2022-10-26T05:48:17.612Z,13.57
2022-10-26T05:50:44.939Z,12.05
2022-10-26T05:53:11.527Z,12.77
2022-10-26T05:55:38.393Z,10.40
2022-10-26T05:58:09.426Z,12.77
2022-10-26T06:00:37.004Z,12.95
2022-10-26T06:03:21.895Z,9.98
2022-10-26T06:05:52.769Z,14.60
2022-10-26T06:08:20.467Z,13.07
2022-10-26T06:10:47.696Z,9.82
2022-10-26T06:13:14.690Z,12.50
2022-10-26T06:16:02.697Z,11.07
2022-10-26T06:18:34.932Z,9.87
2022-10-26T06:21:28.426Z,8.52
2022-10-26T06:24:24.426Z,10.57
2022-10-26T06:27:28.309Z,14.07
2022-10-26T06:30:09.424Z,16.40
2022-10-26T06:32:36.532Z,12.80
2022-10-26T06:35:31.714Z,12.35
2022-10-26T06:38:02.149Z,11.75
2022-10-26T06:40:32.167Z,10.23
2022-10-26T06:42:59.935Z,10.20
2022-10-26T06:45:26.728Z,12.93
2022-10-26T06:48:16.629Z,10.85
2022-10-26T06:51:03.418Z,12.98
2022-10-26T06:53:37.419Z,11.98
2022-10-26T06:56:04.336Z,10.90
2022-10-26T06:58:34.863Z,9.30
2022-10-26T07:01:01.934Z,12.60
2022-10-26T07:03:28.359Z,11.10
2022-10-26T07:05:54.755Z,10.95
2022-10-26T07:08:21.235Z,12.73
2022-10-26T07:10:47.681Z,9.00
2022-10-26T07:13:14.278Z,10.32
2022-10-26T07:15:40.755Z,7.78
2022-10-26T07:18:07.909Z,10.05
2022-10-26T07:20:39.397Z,9.50
2022-10-26T07:23:07.091Z,8.57
2022-10-26T07:25:34.878Z,9.60
2022-10-26T07:28:01.981Z,10.10
2022-10-26T07:30:30.247Z,9.55
2022-10-26T07:33:23.186Z,9.70
2022-10-26T07:35:49.723Z,8.87
2022-10-26T07:38:16.098Z,9.40
2022-10-26T07:40:42.522Z,9.05
2022-10-26T07:43:08.927Z,10.32
2022-10-26T07:45:35.358Z,9.32
2022-10-26T07:48:01.762Z,7.87
2022-10-26T07:50:28.426Z,9.95
2022-10-26T07:52:54.789Z,11.63
2022-10-26T07:55:21.265Z,10.13
2022-10-26T07:57:51.011Z,9.23
2022-10-26T08:00:21.075Z,8.27
2022-10-26T08:02:47.527Z,9.65
2022-10-26T08:05:14.009Z,11.13
2022-10-26T08:07:41.950Z,9.05
2022-10-26T08:10:08.773Z,11.43
2022-10-26T08:12:35.263Z,8.60
2022-10-26T08:15:01.622Z,10.20
2022-10-26T08:17:29.149Z,12.05
2022-10-26T08:19:55.616Z,10.07
2022-10-26T08:22:22.063Z,9.55
2022-10-26T08:24:48.454Z,9.83
2022-10-26T08:27:15.034Z,10.90
2022-10-26T08:29:42.088Z,8.73
2022-10-26T08:32:08.610Z,9.82
2022-10-26T08:34:35.126Z,11.18
2022-10-26T08:37:01.601Z,8.57
2022-10-26T08:39:27.979Z,11.95
2022-10-26T08:42:19.410Z,7.70
2022-10-26T08:44:48.301Z,8.93
2022-10-26T08:47:24.821Z,9.88
2022-10-26T08:50:02.106Z,7.70
2022-10-26T08:52:56.204Z,9.70
2022-10-26T08:55:29.101Z,13.43
2022-10-26T08:57:56.407Z,8.65
2022-10-26T09:00:25.313Z,8.85
2022-10-26T09:02:53.053Z,11.60
2022-10-26T09:05:27.021Z,9.30
2022-10-26T09:08:22.522Z,9.90
2022-10-26T09:11:09.417Z,10.05
2022-10-26T09:13:40.878Z,9.02
2022-10-26T09:16:24.476Z,9.23
2022-10-26T09:19:01.846Z,11.50
2022-10-26T09:21:35.365Z,8.73
2022-10-26T09:24:25.655Z,10.35
2022-10-26T09:26:58.706Z,10.35
2022-10-26T09:29:36.092Z,11.47
2022-10-26T09:32:04.260Z,13.07
2022-10-26T09:34:48.452Z,8.82
2022-10-26T09:37:25.508Z,8.50
2022-10-26T09:40:08.335Z,8.45
2022-10-26T09:42:47.037Z,9.47
2022-10-26T09:45:20.311Z,11.32
2022-10-26T09:47:51.308Z,9.95
2022-10-26T09:50:36.174Z,8.52
2022-10-26T09:53:03.839Z,12.13
2022-10-26T09:55:33.143Z,11.53
2022-10-26T09:58:03.272Z,11.10
2022-10-26T10:00:30.484Z,12.02
2022-10-26T10:02:58.638Z,14.68
2022-10-26T10:05:49.720Z,13.15
2022-10-26T10:08:19.257Z,13.67
2022-10-26T10:11:01.935Z,17.63
2022-10-26T10:13:38.203Z,15.25
2022-10-26T10:16:10.340Z,12.85
2022-10-26T10:18:37.874Z,12.02
2022-10-26T10:21:05.264Z,13.70
2022-10-26T10:23:37.677Z,13.13
2022-10-26T10:26:07.440Z,12.02
2022-10-26T10:28:35.044Z,10.18
2022-10-26T10:31:05.339Z,10.30
2022-10-26T10:33:33.761Z,10.00
2022-10-26T10:36:00.992Z,13.00
2022-10-26T10:38:27.663Z,10.68
2022-10-26T10:40:57.854Z,12.38
2022-10-26T10:43:25.691Z,9.80
2022-10-26T10:45:57.177Z,10.23
2022-10-26T10:48:28.286Z,11.75
2022-10-26T10:50:58.504Z,12.18
2022-10-26T10:53:45.085Z,10.07
2022-10-26T10:56:47.291Z,10.20
2022-10-26T10:59:38.278Z,10.77
2022-10-26T11:02:13.988Z,10.70
2022-10-26T11:04:55.366Z,10.63
2022-10-26T11:07:24.102Z,11.60
2022-10-26T11:12:53.798Z,11.77
2022-10-26T11:15:24.727Z,10.55
2022-10-26T11:18:08.410Z,11.35
2022-10-26T11:20:42.976Z,9.45
2022-10-26T11:23:19.165Z,10.25
2022-10-26T11:26:00.621Z,10.57
2022-10-26T11:28:42.114Z,9.13
2022-10-26T11:31:16.280Z,10.13
2022-10-26T11:34:13.319Z,9.48
2022-10-26T11:36:44.194Z,9.63
2022-10-26T11:39:16.264Z,9.47
2022-10-26T11:41:47.179Z,11.07
2022-10-26T11:44:29.484Z,14.93
2022-10-26T11:47:02.389Z,9.13
2022-10-26T11:49:50.413Z,8.35
2022-10-26T11:52:24.967Z,7.47
2022-10-26T11:54:56.437Z,8.82
2022-10-26T11:57:25.662Z,7.35
2022-10-26T12:00:02.402Z,7.80
2022-10-26T12:02:28.892Z,8.52
2022-10-26T12:05:33.035Z,10.30
2022-10-26T12:08:06.237Z,8.93
2022-10-26T12:10:35.274Z,8.82
2022-10-26T12:13:24.890Z,7.80
2022-10-26T12:16:04.678Z,8.77
2022-10-26T12:18:54.985Z,8.13
2022-10-26T12:21:26.375Z,8.25
2022-10-26T12:23:54.343Z,6.70
2022-10-26T12:26:38.797Z,11.32
2022-10-26T12:29:05.170Z,8.18
2022-10-26T12:31:37.414Z,7.03
2022-10-26T12:34:10.275Z,9.38
2022-10-26T12:36:54.870Z,8.20
2022-10-26T12:39:35.677Z,7.53
2022-10-26T12:42:07.828Z,7.80
2022-10-26T12:44:45.358Z,8.73
2022-10-26T12:47:31.720Z,6.82
2022-10-26T12:49:59.191Z,8.25
2022-10-26T12:52:28.367Z,7.40
2022-10-26T12:55:07.335Z,7.32
2022-10-26T12:57:47.300Z,8.90
2022-10-26T13:00:17.718Z,7.43
2022-10-26T13:02:50.634Z,9.15
2022-10-26T13:05:29.255Z,7.43
2022-10-26T13:08:03.610Z,7.18
2022-10-26T13:10:30.389Z,5.80
2022-10-26T13:12:59.585Z,9.70
2022-10-26T13:15:39.235Z,8.82
2022-10-26T13:18:17.358Z,7.88
2022-10-26T13:21:07.933Z,7.25
2022-10-26T13:23:39.268Z,7.77
2022-10-26T13:26:11.551Z,7.55
2022-10-26T13:28:37.982Z,5.90
2022-10-26T13:31:11.164Z,7.30
2022-10-26T13:33:41.059Z,6.78
2022-10-26T13:36:18.184Z,6.53
2022-10-26T13:38:46.796Z,7.00
2022-10-26T13:41:30.456Z,10.32
2022-10-26T13:43:59.012Z,15.77
2022-10-26T13:46:27.507Z,7.15
2022-10-26T13:49:00.529Z,7.80
2022-10-26T13:51:39.844Z,8.10
2022-10-26T13:54:34.060Z,6.50
2022-10-26T13:57:37.933Z,8.18
2022-10-26T14:00:16.486Z,8.77
2022-10-26T14:02:43.633Z,8.43
2022-10-26T14:05:11.732Z,8.48
2022-10-26T14:07:50.488Z,6.03
2022-10-26T14:10:27.211Z,7.10
2022-10-26T14:12:54.163Z,6.95
2022-10-26T14:15:29.704Z,7.57
2022-10-26T14:17:57.467Z,8.50
2022-10-26T14:20:26.041Z,6.72
2022-10-26T14:22:52.687Z,7.90
2022-10-26T14:25:41.922Z,11.25
2022-10-26T14:28:27.668Z,7.73
2022-10-26T14:30:54.129Z,6.43
2022-10-26T14:33:27.471Z,5.68
2022-10-26T14:35:54.721Z,9.18
2022-10-26T14:38:25.860Z,10.85
2022-10-26T14:40:56.202Z,9.50
2022-10-26T14:43:24.800Z,8.25
2022-10-26T14:45:53.633Z,11.55
2022-10-26T14:48:28.048Z,8.05
2022-10-26T14:51:18.684Z,8.05
2022-10-26T14:53:50.755Z,12.10
2022-10-26T14:56:35.249Z,8.27
2022-10-26T14:59:12.070Z,7.85
2022-10-26T15:01:57.203Z,8.30
2022-10-26T15:04:35.893Z,8.32
2022-10-26T15:07:11.242Z,8.47
2022-10-26T15:09:39.012Z,9.85
2022-10-26T15:12:06.235Z,8.45
2022-10-26T15:14:34.131Z,9.15
2022-10-26T15:17:00.862Z,9.32
2022-10-26T15:19:27.910Z,8.60
2022-10-26T15:21:54.445Z,6.90
2022-10-26T15:24:20.872Z,7.25
2022-10-26T15:26:47.811Z,7.35
2022-10-26T15:29:37.009Z,8.27
2022-10-26T15:34:37.346Z,9.00
2022-10-26T15:37:03.915Z,12.05
2022-10-26T15:39:30.451Z,7.30
2022-10-26T15:41:56.917Z,8.05
2022-10-26T15:44:23.315Z,7.97
2022-10-26T15:46:50.080Z,7.82
2022-10-26T15:49:19.600Z,8.13
2022-10-26T15:51:47.994Z,8.60
2022-10-26T15:54:14.744Z,7.82
2022-10-26T15:56:42.073Z,7.87
2022-10-26T15:59:17.410Z,7.63
2022-10-26T16:01:44.324Z,7.30
2022-10-26T16:04:11.693Z,8.75
2022-10-26T16:06:40.334Z,9.25
2022-10-26T16:09:11.073Z,8.60
2022-10-26T16:11:37.489Z,9.60
2022-10-26T16:14:04.200Z,7.65
2022-10-26T16:16:31.389Z,9.00
2022-10-26T16:19:18.500Z,7.93
2022-10-26T16:21:44.206Z,9.93
2022-10-26T16:24:11.758Z,9.82
2022-10-26T16:26:38.230Z,10.60
2022-10-26T16:29:04.685Z,9.90
2022-10-26T16:31:31.080Z,9.65
2022-10-26T16:34:00.296Z,11.87
2022-10-26T16:36:30.524Z,10.57
2022-10-26T16:38:57.015Z,11.02
2022-10-26T16:43:56.009Z,11.75
2022-10-26T16:46:22.502Z,10.47
2022-10-26T16:48:50.060Z,8.88
2022-10-26T16:51:25.129Z,10.45
2022-10-26T16:53:53.382Z,11.13
2022-10-26T16:56:22.015Z,10.80
2022-10-26T16:58:48.810Z,10.77
2022-10-26T17:01:17.425Z,13.20
2022-10-26T17:03:44.769Z,10.25
2022-10-26T17:06:11.515Z,12.10
2022-10-26T17:08:37.948Z,13.18
2022-10-26T17:11:13.422Z,11.07
2022-10-26T17:13:40.647Z,9.13
2022-10-26T17:16:18.511Z,13.88
2022-10-26T17:18:45.869Z,12.10
2022-10-26T17:21:13.536Z,11.25
2022-10-26T17:23:40.027Z,12.13
2022-10-26T17:26:08.591Z,11.68
2022-10-26T17:28:35.330Z,11.90
2022-10-26T17:31:06.571Z,10.32
2022-10-26T17:33:34.935Z,9.35
2022-10-26T17:36:02.676Z,10.00
2022-10-26T17:38:33.933Z,10.93
2022-10-26T17:41:01.495Z,12.80
2022-10-26T17:43:33.588Z,12.70
2022-10-26T17:46:01.562Z,10.02
2022-10-26T17:48:28.899Z,9.47
2022-10-26T17:50:57.861Z,8.95
2022-10-26T17:53:24.583Z,8.90
2022-10-26T17:55:59.272Z,8.88
2022-10-26T17:58:25.681Z,9.35
2022-10-26T18:00:52.120Z,9.17
2022-10-26T18:03:18.583Z,13.82
2022-10-26T18:05:51.596Z,8.93
2022-10-26T18:08:18.444Z,9.15
2022-10-26T18:10:53.427Z,10.10
2022-10-26T18:13:19.844Z,11.33
2022-10-26T18:15:46.313Z,10.25
2022-10-26T18:18:13.436Z,10.90
2022-10-26T18:20:40.131Z,11.32
2022-10-26T18:23:06.698Z,10.73
2022-10-26T18:25:33.284Z,11.60
2022-10-26T18:27:59.756Z,15.23
2022-10-26T18:30:26.187Z,14.18
2022-10-26T18:32:53.096Z,11.57
2022-10-26T18:35:20.118Z,12.48
2022-10-26T18:37:46.552Z,14.33
2022-10-26T18:40:13.298Z,13.15
2022-10-26T18:42:39.679Z,11.10
2022-10-26T18:45:06.552Z,11.98
2022-10-26T18:47:33.416Z,12.88
2022-10-26T18:49:59.813Z,13.77
2022-10-26T18:52:26.216Z,15.88
2022-10-26T18:54:54.078Z,14.90
2022-10-26T18:57:21.141Z,14.27
2022-10-26T18:59:51.436Z,13.70
2022-10-26T19:02:20.396Z,15.67
2022-10-26T19:04:46.783Z,14.80
2022-10-26T19:07:13.191Z,13.50
2022-10-26T19:09:39.579Z,14.45
2022-10-26T19:12:06.173Z,15.30
2022-10-26T19:14:32.556Z,17.17
2022-10-26T19:16:58.955Z,18.40
2022-10-26T19:19:25.381Z,19.73
2022-10-26T19:21:51.830Z,17.67
2022-10-26T19:24:20.651Z,15.77
2022-10-26T19:26:48.035Z,16.50
2022-10-26T19:29:16.625Z,14.93
2022-10-26T19:31:47.336Z,13.55
2022-10-26T19:34:15.184Z,17.52
2022-10-26T19:36:42.261Z,16.88
2022-10-26T19:39:08.648Z,16.17
2022-10-26T19:41:35.062Z,16.38
2022-10-26T19:44:01.556Z,20.88
2022-10-26T19:46:29.675Z,20.77
2022-10-26T19:48:58.407Z,17.33
2022-10-26T19:51:26.201Z,16.83
2022-10-26T19:53:53.078Z,18.50
2022-10-26T19:56:19.601Z,19.55
2022-10-26T19:58:46.509Z,15.75
2022-10-26T20:01:14.707Z,14.40
2022-10-26T20:03:41.430Z,14.93
2022-10-26T20:06:10.925Z,15.93
2022-10-26T20:08:38.615Z,21.83
2022-10-26T20:11:10.171Z,12.93
2022-10-26T20:13:40.336Z,16.88
2022-10-26T20:16:07.911Z,16.60
2022-10-26T20:18:34.677Z,15.10
2022-10-26T20:21:01.262Z,14.50
2022-10-26T20:23:27.696Z,11.30
2022-10-26T20:25:54.112Z,12.32
2022-10-26T20:28:20.508Z,10.87
2022-10-26T20:30:48.456Z,12.52
2022-10-26T20:33:15.020Z,12.23
2022-10-26T20:35:41.417Z,15.52
2022-10-26T20:38:15.235Z,13.43
2022-10-26T20:40:41.894Z,11.40
2022-10-26T20:43:10.471Z,11.95
2022-10-26T20:45:37.230Z,11.90
2022-10-26T20:48:03.989Z,12.73
2022-10-26T20:50:31.037Z,12.63
2022-10-26T20:53:11.511Z,12.90
2022-10-26T20:55:42.794Z,12.80
2022-10-26T20:58:20.434Z,11.60
2022-10-26T21:01:06.679Z,14.77
2022-10-26T21:03:33.654Z,12.95
2022-10-26T21:06:00.058Z,11.50
2022-10-26T21:08:26.473Z,11.25
2022-10-26T21:10:53.125Z,10.13
2022-10-26T21:13:19.547Z,10.50
2022-10-26T21:15:45.985Z,11.43
2022-10-26T21:18:12.500Z,11.77
2022-10-26T21:20:38.958Z,11.32
2022-10-26T21:23:05.359Z,15.20
2022-10-26T21:25:31.742Z,10.45
2022-10-26T21:27:58.675Z,11.75
2022-10-26T21:30:25.548Z,11.97
2022-10-26T21:32:53.140Z,10.25
2022-10-26T21:35:20.846Z,12.68
2022-10-26T21:37:48.102Z,10.77
2022-10-26T21:40:14.813Z,11.68
2022-10-26T21:42:41.260Z,13.33
2022-10-26T21:45:08.249Z,10.52
2022-10-26T21:47:34.638Z,15.27
2022-10-26T21:50:01.072Z,11.20
2022-10-26T21:52:27.513Z,11.90
2022-10-26T21:54:53.886Z,12.10
2022-10-26T21:57:20.237Z,14.00
2022-10-26T21:59:46.676Z,15.13
2022-10-26T22:02:13.158Z,12.70
2022-10-26T22:04:39.661Z,9.80
2022-10-26T22:07:06.064Z,12.30
2022-10-26T22:09:37.356Z,11.00
2022-10-26T22:12:11.476Z,10.70
2022-10-26T22:14:37.918Z,9.68
2022-10-26T22:17:04.410Z,10.25
2022-10-26T22:19:30.890Z,10.63
2022-10-26T22:21:57.299Z,12.13
2022-10-26T22:24:23.710Z,10.57
2022-10-26T22:26:50.109Z,8.43
2022-10-26T22:29:16.545Z,10.68
2022-10-26T22:31:42.937Z,10.17
2022-10-26T22:34:14.901Z,9.23
2022-10-26T22:36:41.357Z,10.43
2022-10-26T22:39:07.812Z,10.38
2022-10-26T22:41:34.232Z,8.07
2022-10-26T22:44:00.653Z,11.70
2022-10-26T22:46:28.194Z,10.48
2022-10-26T22:48:56.350Z,10.20
2022-10-26T22:51:24.414Z,9.40
2022-10-26T22:53:55.040Z,10.43
2022-10-26T22:56:22.808Z,11.80
2022-10-26T22:58:49.619Z,10.20
2022-10-26T23:01:18.225Z,10.60
2022-10-26T23:03:44.815Z,11.60
2022-10-26T23:06:16.535Z,12.48
2022-10-26T23:08:43.299Z,13.67
2022-10-26T23:11:12.702Z,10.95
2022-10-26T23:13:39.094Z,12.73
2022-10-26T23:16:06.584Z,11.93
2022-10-26T23:18:33.584Z,12.57
2022-10-26T23:21:00.323Z,12.03
2022-10-26T23:23:27.705Z,11.10
2022-10-26T23:25:54.152Z,11.23
2022-10-26T23:28:20.503Z,14.15
2022-10-26T23:30:47.465Z,12.02
2022-10-26T23:33:14.213Z,11.87
2022-10-26T23:35:40.693Z,11.70
2022-10-26T23:40:34.414Z,15.75
2022-10-26T23:43:00.943Z,11.60
2022-10-26T23:45:27.354Z,12.50
2022-10-26T23:47:53.805Z,13.82
2022-10-26T23:50:20.354Z,11.15
2022-10-26T23:52:48.198Z,15.55
2022-10-26T23:55:16.617Z,13.95
2022-10-26T23:57:43.041Z,13.90
